Time;durP1;ratioP1;P1;durP2;ratioP2;P2;SDS_P1;SDS_P2;PMS_P1;PMS_P2;Temp;Humidity;BMP_temperature;BMP_pressure;BME280_temperature;BME280_humidity;BME280_pressure;Samples;Min_cycle;Max_cycle;Signal;HPM_P1;HPM_P2
2023/09/25 00:01:47;;;;;;;1.90;0.90;;;;;;;;;;5128410;27;41859;-72
2023/09/25 00:04:15;;;;;;;2.45;1.10;;;;;;;;;;5129241;27;41305;-73
2023/09/25 00:06:44;;;;;;;2.10;1.20;;;;;;;;;;5128310;27;42437;-72
2023/09/25 00:09:12;;;;;;;2.13;1.20;;;;;;;;;;5128689;27;43081;-72
2023/09/25 00:11:40;;;;;;;1.42;0.93;;;;;;;;;;5127603;27;42633;-73
2023/09/25 00:14:08;;;;;;;2.15;1.08;;;;;;;;;;5128033;27;42359;-73
2023/09/25 00:16:37;;;;;;;1.35;0.80;;;;;;;;;;5128397;27;41311;-73
2023/09/25 00:19:05;;;;;;;1.55;0.85;;;;;;;;;;5128182;27;41499;-72
2023/09/25 00:21:34;;;;;;;3.97;1.20;;;;;;;;;;5128606;27;43813;-72
2023/09/25 00:24:04;;;;;;;2.05;1.15;;;;;;;;;;5127931;27;40746;-72
2023/09/25 00:26:32;;;;;;;1.75;0.90;;;;;;;;;;5127314;27;42413;-72
2023/09/25 00:29:00;;;;;;;1.15;0.73;;;;;;;;;;5128618;27;42843;-72
2023/09/25 00:31:28;;;;;;;1.70;1.15;;;;;;;;;;5128465;27;40971;-73
2023/09/25 00:33:56;;;;;;;2.35;1.17;;;;;;;;;;5107853;27;41237;-72
2023/09/25 00:36:25;;;;;;;3.05;1.08;;;;;;;;;;5125032;27;41095;-72
2023/09/25 00:38:54;;;;;;;1.55;0.98;;;;;;;;;;5109285;27;41030;-72
2023/09/25 00:41:23;;;;;;;1.58;0.90;;;;;;;;;;5108230;27;40658;-72
2023/09/25 00:43:51;;;;;;;1.73;0.82;;;;;;;;;;5125025;27;41468;-72
2023/09/25 00:46:20;;;;;;;2.08;0.93;;;;;;;;;;5109381;27;39941;-72
2023/09/25 00:48:48;;;;;;;1.88;0.90;;;;;;;;;;5127684;27;41968;-72
2023/09/25 00:51:17;;;;;;;0.90;0.80;;;;;;;;;;5127842;27;42372;-72
2023/09/25 00:53:47;;;;;;;3.55;1.05;;;;;;;;;;5109209;27;40210;-73
2023/09/25 00:56:15;;;;;;;1.52;0.95;;;;;;;;;;5127714;27;41434;-72
2023/09/25 00:58:44;;;;;;;2.00;1.20;;;;;;;;;;5127379;27;41682;-73
2023/09/25 01:01:12;;;;;;;1.67;0.80;;;;;;;;;;5127121;27;42004;-73
2023/09/25 01:03:41;;;;;;;1.42;0.98;;;;;;;;;;5107980;27;41148;-72
2023/09/25 01:06:09;;;;;;;1.33;1.10;;;;;;;;;;5128068;27;41199;-72
2023/09/25 01:08:37;;;;;;;1.08;0.93;;;;;;;;;;5107737;27;41126;-72
2023/09/25 01:11:07;;;;;;;1.58;0.80;;;;;;;;;;5128164;27;41303;-72
2023/09/25 01:13:35;;;;;;;2.00;1.02;;;;;;;;;;5113617;27;41156;-72
2023/09/25 01:16:04;;;;;;;1.23;0.88;;;;;;;;;;5127569;27;41728;-72
2023/09/25 01:18:33;;;;;;;2.00;1.02;;;;;;;;;;5127084;27;42128;-72
2023/09/25 01:21:02;;;;;;;2.50;1.00;;;;;;;;;;5128384;27;41830;-72
2023/09/25 01:23:32;;;;;;;2.28;0.90;;;;;;;;;;5126277;27;41509;-73
2023/09/25 01:26:00;;;;;;;3.03;1.00;;;;;;;;;;5117813;27;42816;-72
2023/09/25 01:28:27;;;;;;;0.90;0.77;;;;;;;;;;5123752;27;42404;-72
2023/09/25 01:30:58;;;;;;;1.10;0.75;;;;;;;;;;5127148;27;41296;-72
2023/09/25 01:33:26;;;;;;;1.70;0.95;;;;;;;;;;5108372;27;40901;-72
2023/09/25 01:35:55;;;;;;;1.38;0.77;;;;;;;;;;5127312;27;42090;-72
2023/09/25 01:38:23;;;;;;;1.60;0.90;;;;;;;;;;5107235;27;40135;-72
2023/09/25 01:40:53;;;;;;;1.38;0.90;;;;;;;;;;5128696;27;20347;-72
2023/09/25 01:43:21;;;;;;;0.93;0.80;;;;;;;;;;5127398;27;40898;-72
2023/09/25 01:45:49;;;;;;;1.10;0.70;;;;;;;;;;5131003;27;41756;-72
2023/09/25 01:48:17;;;;;;;1.10;0.90;;;;;;;;;;5131341;27;42307;-72
2023/09/25 01:50:45;;;;;;;1.40;0.77;;;;;;;;;;5111282;27;40815;-72
2023/09/25 01:53:13;;;;;;;1.70;0.88;;;;;;;;;;5131326;27;41899;-73
2023/09/25 01:55:42;;;;;;;1.25;0.75;;;;;;;;;;5115630;27;41060;-72
2023/09/25 01:58:11;;;;;;;1.55;0.77;;;;;;;;;;5111703;27;40635;-73
2023/09/25 02:00:39;;;;;;;1.00;0.70;;;;;;;;;;5111880;27;41312;-72
2023/09/25 02:03:07;;;;;;;1.23;0.82;;;;;;;;;;5131161;27;41924;-72
2023/09/25 02:05:35;;;;;;;1.15;0.70;;;;;;;;;;5129469;27;43120;-72
2023/09/25 02:08:04;;;;;;;1.92;0.85;;;;;;;;;;5131121;27;41911;-72
2023/09/25 02:10:33;;;;;;;1.00;0.80;;;;;;;;;;5130227;27;41436;-72
2023/09/25 02:13:01;;;;;;;1.48;0.88;;;;;;;;;;5130151;27;41542;-72
2023/09/25 02:15:30;;;;;;;0.77;0.63;;;;;;;;;;5129769;27;41947;-72
2023/09/25 02:17:58;;;;;;;1.77;0.90;;;;;;;;;;5130277;27;41043;-72
2023/09/25 02:20:27;;;;;;;1.92;0.80;;;;;;;;;;5107452;28;40348;-72
2023/09/25 02:22:55;;;;;;;0.80;0.60;;;;;;;;;;5126822;27;41998;-72
2023/09/25 02:25:24;;;;;;;1.15;0.88;;;;;;;;;;5126833;27;41928;-72
2023/09/25 02:27:52;;;;;;;1.08;0.85;;;;;;;;;;5128263;27;41460;-72
2023/09/25 02:30:20;;;;;;;1.63;0.70;;;;;;;;;;5130518;27;41236;-72
2023/09/25 02:32:50;;;;;;;1.23;0.70;;;;;;;;;;5110905;27;40810;-72
2023/09/25 02:35:18;;;;;;;0.70;0.70;;;;;;;;;;5120235;27;41774;-72
2023/09/25 02:37:46;;;;;;;1.02;0.68;;;;;;;;;;5129908;27;41809;-72
2023/09/25 02:40:14;;;;;;;0.90;0.60;;;;;;;;;;5129628;27;42692;-72
2023/09/25 02:42:46;;;;;;;0.70;0.60;;;;;;;;;;5129705;27;43175;-72
2023/09/25 02:45:15;;;;;;;1.88;0.80;;;;;;;;;;5113276;27;40808;-72
2023/09/25 02:47:43;;;;;;;2.40;0.80;;;;;;;;;;5123091;27;42611;-72
2023/09/25 02:50:13;;;;;;;1.15;0.60;;;;;;;;;;5130172;27;41216;-72
2023/09/25 02:52:42;;;;;;;1.25;0.82;;;;;;;;;;5129686;27;41979;-72
2023/09/25 02:55:10;;;;;;;1.45;0.60;;;;;;;;;;5127768;27;42315;-72
2023/09/25 02:57:38;;;;;;;0.88;0.60;;;;;;;;;;5129527;27;41058;-72
2023/09/25 03:00:11;;;;;;;0.80;0.60;;;;;;;;;;5129939;27;42715;-72
2023/09/25 03:02:40;;;;;;;2.65;1.10;;;;;;;;;;5127682;27;42363;-72
2023/09/25 03:05:09;;;;;;;1.55;0.80;;;;;;;;;;5124497;27;39699;-73
2023/09/25 03:07:39;;;;;;;1.33;0.80;;;;;;;;;;5129056;27;42471;-72
2023/09/25 03:10:08;;;;;;;1.20;0.80;;;;;;;;;;5129332;27;40851;-72
2023/09/25 03:12:36;;;;;;;1.17;0.80;;;;;;;;;;5129023;27;41569;-72
2023/09/25 03:15:05;;;;;;;1.00;0.70;;;;;;;;;;5129388;27;43011;-72
2023/09/25 03:17:35;;;;;;;0.90;0.70;;;;;;;;;;5109815;27;40522;-72
2023/09/25 03:20:12;;;;;;;0.98;0.70;;;;;;;;;;5115754;27;41704;-72
2023/09/25 03:22:42;;;;;;;1.02;0.70;;;;;;;;;;5109112;27;41335;-73
2023/09/25 03:25:10;;;;;;;1.27;0.70;;;;;;;;;;5126537;27;41149;-72
2023/09/25 03:27:38;;;;;;;1.58;0.70;;;;;;;;;;5129595;27;41625;-72
2023/09/25 03:30:07;;;;;;;1.05;0.70;;;;;;;;;;5128875;27;41951;-73
2023/09/25 03:32:35;;;;;;;0.95;0.80;;;;;;;;;;5109566;27;41628;-72
2023/09/25 03:35:04;;;;;;;1.52;0.65;;;;;;;;;;5127256;27;42137;-72
2023/09/25 03:37:32;;;;;;;0.60;0.52;;;;;;;;;;5128385;27;42304;-72
2023/09/25 03:40:06;;;;;;;0.93;0.68;;;;;;;;;;5110121;27;41449;-72
2023/09/25 03:42:34;;;;;;;1.30;0.82;;;;;;;;;;5115193;27;40801;-72
2023/09/25 03:45:02;;;;;;;0.63;0.52;;;;;;;;;;5109773;27;41245;-72
2023/09/25 03:47:30;;;;;;;1.90;0.80;;;;;;;;;;5109926;27;40518;-72
2023/09/25 03:49:58;;;;;;;0.55;0.55;;;;;;;;;;5109991;27;40722;-72
2023/09/25 03:52:27;;;;;;;1.13;0.80;;;;;;;;;;5128443;27;42601;-72
2023/09/25 03:54:55;;;;;;;1.10;0.70;;;;;;;;;;5129199;27;42180;-72
2023/09/25 03:57:24;;;;;;;1.25;0.70;;;;;;;;;;5128213;27;41738;-72
2023/09/25 03:59:52;;;;;;;1.17;0.80;;;;;;;;;;5129081;27;42383;-72
2023/09/25 04:02:20;;;;;;;1.50;0.90;;;;;;;;;;5129070;27;42373;-72
2023/09/25 04:04:48;;;;;;;1.20;0.70;;;;;;;;;;5127320;27;42468;-72
2023/09/25 04:07:16;;;;;;;1.13;0.55;;;;;;;;;;5129059;27;42807;-72
2023/09/25 04:09:44;;;;;;;0.70;0.63;;;;;;;;;;5128021;27;41627;-72
2023/09/25 04:12:14;;;;;;;1.00;0.50;;;;;;;;;;5128200;27;42037;-72
2023/09/25 04:14:44;;;;;;;0.80;0.63;;;;;;;;;;5128053;27;41537;-72
2023/09/25 04:17:13;;;;;;;2.35;0.68;;;;;;;;;;5128860;27;40808;-72
2023/09/25 04:19:41;;;;;;;0.85;0.60;;;;;;;;;;5127727;27;43381;-72
2023/09/25 04:22:11;;;;;;;0.82;0.50;;;;;;;;;;5127865;27;42589;-72
2023/09/25 04:24:39;;;;;;;0.98;0.60;;;;;;;;;;5127362;27;41132;-72
2023/09/25 04:27:09;;;;;;;1.10;0.75;;;;;;;;;;5127422;27;41975;-72
2023/09/25 04:29:38;;;;;;;0.82;0.57;;;;;;;;;;5127898;27;41891;-72
2023/09/25 04:32:08;;;;;;;1.00;0.70;;;;;;;;;;5127840;27;41371;-72
2023/09/25 04:34:37;;;;;;;1.45;0.57;;;;;;;;;;5128078;27;42806;-72
2023/09/25 04:37:05;;;;;;;0.85;0.70;;;;;;;;;;5128715;27;41201;-72
2023/09/25 04:39:35;;;;;;;0.88;0.77;;;;;;;;;;5127179;27;42764;-72
2023/09/25 04:42:03;;;;;;;0.90;0.60;;;;;;;;;;5128025;27;42168;-72
2023/09/25 04:44:31;;;;;;;0.90;0.60;;;;;;;;;;5127762;27;41828;-72
2023/09/25 04:46:59;;;;;;;0.82;0.60;;;;;;;;;;5127844;27;42262;-72
2023/09/25 04:49:29;;;;;;;1.02;0.70;;;;;;;;;;5128014;27;43120;-72
2023/09/25 04:51:57;;;;;;;0.90;0.60;;;;;;;;;;5127634;27;41524;-72
2023/09/25 04:54:25;;;;;;;2.08;0.93;;;;;;;;;;5109408;27;42413;-72
2023/09/25 04:56:53;;;;;;;0.75;0.65;;;;;;;;;;5128039;27;41214;-72
2023/09/25 04:59:21;;;;;;;1.52;0.95;;;;;;;;;;5128153;27;41663;-72
2023/09/25 05:01:49;;;;;;;1.20;0.60;;;;;;;;;;5126845;27;41960;-72
2023/09/25 05:04:17;;;;;;;1.08;0.77;;;;;;;;;;5128278;27;41279;-72
2023/09/25 05:06:46;;;;;;;1.55;0.70;;;;;;;;;;5127515;27;41842;-72
2023/09/25 05:09:15;;;;;;;0.95;0.70;;;;;;;;;;5127833;27;42399;-72
2023/09/25 05:11:43;;;;;;;1.08;0.57;;;;;;;;;;5127759;27;41367;-72
2023/09/25 05:14:11;;;;;;;0.80;0.60;;;;;;;;;;5127598;27;42586;-72
2023/09/25 05:16:39;;;;;;;1.15;0.70;;;;;;;;;;5127565;27;42139;-73
2023/09/25 05:19:07;;;;;;;1.52;0.70;;;;;;;;;;5131785;27;42294;-72
2023/09/25 05:21:35;;;;;;;0.80;0.68;;;;;;;;;;5130419;27;42900;-72
2023/09/25 05:24:05;;;;;;;0.82;0.60;;;;;;;;;;5121660;27;40506;-72
2023/09/25 05:26:36;;;;;;;1.08;0.70;;;;;;;;;;5131472;27;41346;-72
2023/09/25 05:29:04;;;;;;;0.75;0.60;;;;;;;;;;5130842;27;41930;-72
2023/09/25 05:31:32;;;;;;;0.70;0.70;;;;;;;;;;5130464;27;41249;-72
2023/09/25 05:34:00;;;;;;;1.25;0.60;;;;;;;;;;5131798;27;41662;-72
2023/09/25 05:36:28;;;;;;;1.73;0.70;;;;;;;;;;5130432;27;42385;-72
2023/09/25 05:38:56;;;;;;;0.82;0.60;;;;;;;;;;5132031;27;41029;-72
2023/09/25 05:41:25;;;;;;;0.90;0.60;;;;;;;;;;5130737;27;42157;-72
2023/09/25 05:43:56;;;;;;;3.85;1.08;;;;;;;;;;5130947;27;42359;-72
2023/09/25 05:46:25;;;;;;;9.38;1.00;;;;;;;;;;5128865;27;42175;-72
2023/09/25 05:48:54;;;;;;;5.60;0.98;;;;;;;;;;5132602;27;43058;-71
2023/09/25 05:51:25;;;;;;;3.72;0.98;;;;;;;;;;5127250;27;41884;-72
2023/09/25 05:53:53;;;;;;;1.20;0.90;;;;;;;;;;5131861;27;42717;-72
2023/09/25 05:56:22;;;;;;;3.70;0.90;;;;;;;;;;5131302;27;42143;-72
2023/09/25 05:58:52;;;;;;;5.85;1.27;;;;;;;;;;5130106;27;41240;-72
2023/09/25 06:01:20;;;;;;;4.40;0.80;;;;;;;;;;5130888;27;41813;-71
2023/09/25 06:03:49;;;;;;;1.65;0.80;;;;;;;;;;5129363;27;41688;-71
2023/09/25 06:06:17;;;;;;;8.95;0.95;;;;;;;;;;5131169;27;41719;-71
2023/09/25 06:08:45;;;;;;;6.97;1.05;;;;;;;;;;5130719;27;41578;-71
2023/09/25 06:11:14;;;;;;;3.90;1.00;;;;;;;;;;5129035;27;41572;-71
2023/09/25 06:13:42;;;;;;;5.90;1.27;;;;;;;;;;5130402;27;41448;-71
2023/09/25 06:16:12;;;;;;;4.35;1.00;;;;;;;;;;5130912;27;42442;-71
2023/09/25 06:18:41;;;;;;;6.28;1.13;;;;;;;;;;5126623;27;41277;-72
2023/09/25 06:21:10;;;;;;;9.38;1.38;;;;;;;;;;5130764;27;41367;-72
2023/09/25 06:23:38;;;;;;;5.63;1.00;;;;;;;;;;5129913;27;33337;-72
2023/09/25 06:26:07;;;;;;;4.63;1.05;;;;;;;;;;5110960;27;40426;-72
2023/09/25 06:28:35;;;;;;;9.43;1.00;;;;;;;;;;5129960;27;42458;-72
2023/09/25 06:31:03;;;;;;;4.88;0.90;;;;;;;;;;5129552;27;41322;-72
2023/09/25 06:33:32;;;;;;;4.30;0.95;;;;;;;;;;5129274;27;42095;-72
2023/09/25 06:36:00;;;;;;;15.95;1.05;;;;;;;;;;5130547;27;42086;-72
2023/09/25 06:38:28;;;;;;;3.95;1.10;;;;;;;;;;5129805;27;41534;-72
2023/09/25 06:40:56;;;;;;;2.55;0.82;;;;;;;;;;5129688;27;41950;-72
2023/09/25 06:43:24;;;;;;;4.35;1.10;;;;;;;;;;5130316;27;41546;-72
2023/09/25 06:45:52;;;;;;;6.35;0.95;;;;;;;;;;5129408;27;41906;-72
2023/09/25 06:48:21;;;;;;;7.05;1.00;;;;;;;;;;5130103;27;41481;-72
2023/09/25 06:50:50;;;;;;;2.33;0.80;;;;;;;;;;5129612;27;41765;-72
2023/09/25 06:53:18;;;;;;;4.65;1.20;;;;;;;;;;5119241;27;42395;-73
2023/09/25 06:55:47;;;;;;;2.17;1.08;;;;;;;;;;5130003;27;42709;-73
2023/09/25 06:58:15;;;;;;;2.35;0.88;;;;;;;;;;5118651;27;42031;-73
2023/09/25 07:00:44;;;;;;;2.65;0.80;;;;;;;;;;5129229;27;42322;-73
2023/09/25 07:03:24;;;;;;;6.32;1.02;;;;;;;;;;5116057;27;42039;-73
2023/09/25 07:05:54;;;;;;;9.30;1.25;;;;;;;;;;5131155;27;41715;-72
2023/09/25 07:08:22;;;;;;;6.50;1.42;;;;;;;;;;5128968;27;42884;-72
2023/09/25 07:10:50;;;;;;;9.10;1.00;;;;;;;;;;5129646;27;41905;-72
2023/09/25 07:13:19;;;;;;;4.40;1.38;;;;;;;;;;5128631;27;42632;-73
2023/09/25 07:15:47;;;;;;;3.78;1.27;;;;;;;;;;5129576;27;41950;-71
2023/09/25 07:18:16;;;;;;;5.75;1.50;;;;;;;;;;5130462;27;41451;-75
2023/09/25 07:20:45;;;;;;;13.65;1.55;;;;;;;;;;5129252;27;41778;-73
2023/09/25 07:23:14;;;;;;;9.95;1.80;;;;;;;;;;5111218;27;41495;-73
2023/09/25 07:25:42;;;;;;;19.90;1.77;;;;;;;;;;5126722;27;42438;-73
2023/09/25 07:28:11;;;;;;;12.23;1.65;;;;;;;;;;5129773;27;41766;-73
2023/09/25 07:30:42;;;;;;;12.32;1.60;;;;;;;;;;5129292;27;42018;-73
2023/09/25 07:33:10;;;;;;;7.60;1.65;;;;;;;;;;5128362;27;41194;-73
2023/09/25 07:35:38;;;;;;;10.23;1.80;;;;;;;;;;5129023;27;42266;-77
2023/09/25 07:38:07;;;;;;;37.92;3.50;;;;;;;;;;5129782;27;41365;-75
2023/09/25 07:40:36;;;;;;;38.25;2.22;;;;;;;;;;5127864;27;42674;-73
2023/09/25 07:43:04;;;;;;;19.08;2.00;;;;;;;;;;5129215;27;43049;-75
2023/09/25 07:45:32;;;;;;;29.70;2.40;;;;;;;;;;5129635;27;42464;-73
2023/09/25 07:48:00;;;;;;;15.05;2.35;;;;;;;;;;5130353;27;42240;-76
2023/09/25 07:50:28;;;;;;;14.75;2.80;;;;;;;;;;5128702;27;42092;-74
2023/09/25 07:52:58;;;;;;;61.42;4.22;;;;;;;;;;5116280;27;42602;-73
2023/09/25 07:55:26;;;;;;;43.90;3.83;;;;;;;;;;5129111;27;42079;-73
2023/09/25 07:57:56;;;;;;;22.90;3.85;;;;;;;;;;5124972;27;39540;-75
2023/09/25 08:00:25;;;;;;;32.78;4.55;;;;;;;;;;5129464;27;41174;-74
2023/09/25 08:02:54;;;;;;;47.38;4.43;;;;;;;;;;5111027;27;41272;-76
2023/09/25 08:05:22;;;;;;;28.17;3.30;;;;;;;;;;5128492;27;40889;-75
2023/09/25 08:07:50;;;;;;;18.95;3.70;;;;;;;;;;5129066;27;41412;-76
2023/09/25 08:10:22;;;;;;;20.73;3.58;;;;;;;;;;5124882;27;42336;-75
2023/09/25 08:12:50;;;;;;;18.13;2.75;;;;;;;;;;5129341;27;41430;-77
2023/09/25 08:15:20;;;;;;;34.10;3.20;;;;;;;;;;5128863;27;42177;-75
2023/09/25 08:17:48;;;;;;;20.52;2.95;;;;;;;;;;5128392;27;41567;-74
2023/09/25 08:20:20;;;;;;;23.30;3.83;;;;;;;;;;5128894;27;41901;-75
2023/09/25 08:22:49;;;;;;;32.28;3.53;;;;;;;;;;5125164;27;42411;-76
2023/09/25 08:25:17;;;;;;;17.33;3.25;;;;;;;;;;5125237;27;41639;-75
2023/09/25 08:27:45;;;;;;;25.30;3.30;;;;;;;;;;5129001;27;42364;-74
2023/09/25 08:30:13;;;;;;;18.92;2.75;;;;;;;;;;5129144;27;41826;-73
2023/09/25 08:32:43;;;;;;;18.83;3.08;;;;;;;;;;5128550;27;41138;-78
2023/09/25 08:35:11;;;;;;;25.10;3.22;;;;;;;;;;5128572;27;42022;-73
2023/09/25 08:37:39;;;;;;;27.40;3.88;;;;;;;;;;5128412;27;41693;-74
2023/09/25 08:40:09;;;;;;;21.27;2.75;;;;;;;;;;5128230;27;41693;-75
2023/09/25 08:42:37;;;;;;;17.30;2.45;;;;;;;;;;5118210;27;42184;-76
2023/09/25 08:45:06;;;;;;;13.63;2.67;;;;;;;;;;5128786;27;41555;-75
2023/09/25 08:47:34;;;;;;;11.82;2.25;;;;;;;;;;5127960;27;41354;-75
2023/09/25 08:50:04;;;;;;;7.75;3.05;;;;;;;;;;5128616;27;42527;-74
2023/09/25 08:52:34;;;;;;;11.15;1.92;;;;;;;;;;5124316;27;42507;-73
2023/09/25 08:55:03;;;;;;;8.25;2.15;;;;;;;;;;5128789;27;41833;-73
2023/09/25 08:57:31;;;;;;;6.10;2.05;;;;;;;;;;5128109;27;41397;-73
2023/09/25 09:00:00;;;;;;;10.95;2.25;;;;;;;;;;5127855;27;41786;-75
2023/09/25 09:02:28;;;;;;;10.77;1.63;;;;;;;;;;5127737;27;42769;-73
2023/09/25 09:04:56;;;;;;;6.82;2.13;;;;;;;;;;5128429;27;41810;-73
2023/09/25 09:07:25;;;;;;;8.68;2.00;;;;;;;;;;5127468;27;41656;-74
2023/09/25 09:09:53;;;;;;;6.97;2.10;;;;;;;;;;5121890;27;43196;-74
2023/09/25 09:12:21;;;;;;;6.57;1.80;;;;;;;;;;5127455;27;41303;-75
2023/09/25 09:14:49;;;;;;;3.63;1.52;;;;;;;;;;5127346;27;41473;-75
2023/09/25 09:17:17;;;;;;;5.15;1.73;;;;;;;;;;5129720;27;41852;-75
2023/09/25 09:19:52;;;;;;;4.53;1.73;;;;;;;;;;5127167;27;41558;-75
2023/09/25 09:22:21;;;;;;;3.80;1.67;;;;;;;;;;5123207;27;41949;-75
2023/09/25 09:24:52;;;;;;;3.13;1.90;;;;;;;;;;5107271;27;39577;-75
2023/09/25 09:27:21;;;;;;;9.02;1.67;;;;;;;;;;5115463;27;42030;-74
2023/09/25 09:29:52;;;;;;;18.02;2.10;;;;;;;;;;5127040;27;41954;-76
2023/09/25 09:32:20;;;;;;;8.77;1.95;;;;;;;;;;5127529;27;41898;-79
2023/09/25 09:34:49;;;;;;;6.13;1.90;;;;;;;;;;5126621;27;42672;-79
2023/09/25 09:37:18;;;;;;;7.85;1.95;;;;;;;;;;5127878;27;41953;-78
2023/09/25 09:39:52;;;;;;;4.07;1.60;;;;;;;;;;5127480;27;41811;-78
2023/09/25 09:42:21;;;;;;;7.65;1.50;;;;;;;;;;5123775;27;42143;-78
2023/09/25 09:44:49;;;;;;;9.30;1.75;;;;;;;;;;5130555;27;41075;-74
2023/09/25 09:47:17;;;;;;;2.67;1.55;;;;;;;;;;5127417;27;42421;-76
2023/09/25 09:49:45;;;;;;;3.85;1.63;;;;;;;;;;5126833;27;41972;-74
2023/09/25 09:52:17;;;;;;;3.92;1.38;;;;;;;;;;5127332;27;41236;-74
2023/09/25 09:54:45;;;;;;;10.88;1.85;;;;;;;;;;5128127;27;43071;-75
2023/09/25 09:57:13;;;;;;;2.72;1.17;;;;;;;;;;5121502;27;41622;-74
2023/09/25 09:59:42;;;;;;;3.42;1.38;;;;;;;;;;5128157;27;41825;-74
2023/09/25 10:02:10;;;;;;;9.65;1.45;;;;;;;;;;5127679;27;41494;-75
2023/09/25 10:04:39;;;;;;;10.27;1.48;;;;;;;;;;5129694;27;41368;-75
2023/09/25 10:07:08;;;;;;;6.78;1.90;;;;;;;;;;5131242;27;41489;-74
2023/09/25 10:09:37;;;;;;;11.30;1.90;;;;;;;;;;5130651;27;43074;-74
2023/09/25 10:12:05;;;;;;;6.95;1.70;;;;;;;;;;5131004;27;42602;-73
2023/09/25 10:14:38;;;;;;;9.82;1.42;;;;;;;;;;5130520;27;42588;-73
2023/09/25 10:17:08;;;;;;;6.95;1.35;;;;;;;;;;5130444;27;42443;-75
2023/09/25 10:19:48;;;;;;;15.18;2.15;;;;;;;;;;5130037;27;40817;-74
2023/09/25 10:22:18;;;;;;;8.95;1.88;;;;;;;;;;5120618;27;41184;-73
2023/09/25 10:24:46;;;;;;;6.95;1.73;;;;;;;;;;5110456;27;41612;-77
2023/09/25 10:27:14;;;;;;;8.07;1.80;;;;;;;;;;5131247;27;42700;-75
2023/09/25 10:29:57;;;;;;;17.13;1.73;;;;;;;;;;5130675;27;42962;-76
2023/09/25 10:32:31;;;;;;;19.73;1.90;;;;;;;;;;5110807;27;41843;-75
2023/09/25 10:35:14;;;;;;;12.77;1.75;;;;;;;;;;5112429;27;41382;-75
2023/09/25 10:37:57;;;;;;;12.27;1.65;;;;;;;;;;5129464;27;42284;-76
2023/09/25 10:40:25;;;;;;;5.93;1.95;;;;;;;;;;5118400;27;39555;-75
2023/09/25 10:42:53;;;;;;;12.43;1.65;;;;;;;;;;5131908;27;41679;-76
2023/09/25 10:45:22;;;;;;;9.10;1.52;;;;;;;;;;5131217;27;41673;-76
2023/09/25 10:47:51;;;;;;;9.93;1.30;;;;;;;;;;5129806;27;42622;-75
2023/09/25 10:50:19;;;;;;;15.18;1.60;;;;;;;;;;5130272;27;41915;-77
2023/09/25 10:52:47;;;;;;;15.00;2.00;;;;;;;;;;5129823;27;42340;-75
2023/09/25 10:55:15;;;;;;;7.32;1.52;;;;;;;;;;5131405;27;41351;-74
2023/09/25 10:57:43;;;;;;;13.35;1.42;;;;;;;;;;5111675;27;41718;-73
2023/09/25 11:00:14;;;;;;;7.95;1.70;;;;;;;;;;5130235;27;42070;-74
2023/09/25 11:02:43;;;;;;;4.47;1.38;;;;;;;;;;5128987;27;41180;-70
2023/09/25 11:05:12;;;;;;;8.52;1.45;;;;;;;;;;5144511;27;43070;-73
2023/09/25 11:07:40;;;;;;;5.20;1.58;;;;;;;;;;5133030;27;40898;-68
2023/09/25 11:10:09;;;;;;;10.65;1.55;;;;;;;;;;5130674;27;42448;-70
2023/09/25 11:12:37;;;;;;;5.57;1.20;;;;;;;;;;5130417;27;40965;-70
2023/09/25 11:15:09;;;;;;;5.03;1.38;;;;;;;;;;5128274;27;41770;-70
2023/09/25 11:17:37;;;;;;;2.97;1.10;;;;;;;;;;5129186;27;44779;-69
2023/09/25 11:20:11;;;;;;;5.28;1.30;;;;;;;;;;5129589;27;41933;-73
2023/09/25 11:22:40;;;;;;;5.97;1.33;;;;;;;;;;5122587;27;41760;-71
2023/09/25 11:25:10;;;;;;;2.58;1.20;;;;;;;;;;5089185;28;42917;-70
2023/09/25 11:27:38;;;;;;;6.57;1.38;;;;;;;;;;5088050;28;41143;-70
2023/09/25 11:30:09;;;;;;;8.38;1.42;;;;;;;;;;5089058;28;41498;-70
2023/09/25 11:32:37;;;;;;;6.78;1.40;;;;;;;;;;5088312;28;40505;-71
2023/09/25 11:35:06;;;;;;;1.52;1.20;;;;;;;;;;5087332;28;41728;-71
2023/09/25 11:37:35;;;;;;;16.90;1.55;;;;;;;;;;5088020;28;41794;-70
2023/09/25 11:40:07;;;;;;;10.43;1.42;;;;;;;;;;5089005;28;41763;-71
2023/09/25 11:42:35;;;;;;;23.48;2.40;;;;;;;;;;5086943;28;41977;-71
2023/09/25 11:45:04;;;;;;;6.68;1.40;;;;;;;;;;5088792;28;42317;-71
2023/09/25 11:47:32;;;;;;;6.57;1.30;;;;;;;;;;5088209;28;41211;-71
2023/09/25 11:50:00;;;;;;;3.75;1.50;;;;;;;;;;5088237;28;41861;-71
2023/09/25 11:52:28;;;;;;;10.93;1.30;;;;;;;;;;5088298;28;43064;-72
2023/09/25 11:54:56;;;;;;;4.97;1.77;;;;;;;;;;5088375;28;42525;-72
2023/09/25 11:57:26;;;;;;;7.57;1.05;;;;;;;;;;5097099;28;43076;-71
2023/09/25 11:59:54;;;;;;;3.95;1.50;;;;;;;;;;5088567;28;42840;-72
2023/09/25 12:02:25;;;;;;;6.75;1.70;;;;;;;;;;5087392;28;41699;-71
2023/09/25 12:04:53;;;;;;;11.02;1.13;;;;;;;;;;5084919;28;42176;-71
2023/09/25 12:07:21;;;;;;;7.97;1.55;;;;;;;;;;5087151;28;42630;-71
2023/09/25 12:09:50;;;;;;;5.40;1.45;;;;;;;;;;5087180;28;41736;-71
2023/09/25 12:12:20;;;;;;;2.78;1.10;;;;;;;;;;5085329;28;42101;-71
2023/09/25 12:14:51;;;;;;;5.93;1.30;;;;;;;;;;5087989;28;41565;-72
2023/09/25 12:17:19;;;;;;;3.03;1.50;;;;;;;;;;5084472;28;43179;-71
2023/09/25 12:19:48;;;;;;;2.83;1.17;;;;;;;;;;5087482;28;41759;-71
2023/09/25 12:22:16;;;;;;;3.05;1.15;;;;;;;;;;5086334;28;43110;-71
2023/09/25 12:24:44;;;;;;;3.30;1.20;;;;;;;;;;5121513;27;42671;-71
2023/09/25 12:27:12;;;;;;;1.25;1.10;;;;;;;;;;5129028;27;41018;-72
2023/09/25 12:29:40;;;;;;;3.05;0.90;;;;;;;;;;5128260;27;41691;-71
2023/09/25 12:32:10;;;;;;;2.63;1.20;;;;;;;;;;5128607;27;42424;-71
2023/09/25 12:34:38;;;;;;;4.22;1.30;;;;;;;;;;5127937;27;41196;-71
2023/09/25 12:37:08;;;;;;;1.85;1.20;;;;;;;;;;5129401;27;42391;-71
2023/09/25 12:39:36;;;;;;;4.85;1.50;;;;;;;;;;5127200;27;41337;-71
2023/09/25 12:42:04;;;;;;;1.45;1.10;;;;;;;;;;5128744;27;42672;-71
2023/09/25 12:44:48;;;;;;;3.55;1.52;;;;;;;;;;5117196;27;43154;-71
2023/09/25 12:47:17;;;;;;;2.58;1.25;;;;;;;;;;5128731;27;41348;-71
2023/09/25 12:49:45;;;;;;;3.55;1.13;;;;;;;;;;5129052;27;41748;-70
2023/09/25 12:52:13;;;;;;;2.33;1.40;;;;;;;;;;5128533;27;41908;-70
2023/09/25 12:54:41;;;;;;;4.40;1.35;;;;;;;;;;5128387;27;41140;-70
2023/09/25 12:57:09;;;;;;;2.00;1.48;;;;;;;;;;5129473;27;41721;-70
2023/09/25 12:59:37;;;;;;;5.20;1.92;;;;;;;;;;5127106;27;40202;-70
2023/09/25 13:02:05;;;;;;;2.75;1.45;;;;;;;;;;5127802;27;42741;-71
2023/09/25 13:04:34;;;;;;;4.00;1.70;;;;;;;;;;5127803;27;42562;-71
2023/09/25 13:07:02;;;;;;;2.45;1.40;;;;;;;;;;5127395;27;42032;-71
2023/09/25 13:09:31;;;;;;;3.78;1.50;;;;;;;;;;5126942;27;42029;-71
2023/09/25 13:12:00;;;;;;;2.65;1.30;;;;;;;;;;5128222;27;42734;-71
2023/09/25 13:14:28;;;;;;;3.45;1.60;;;;;;;;;;5126726;27;42200;-71
2023/09/25 13:16:56;;;;;;;3.35;1.40;;;;;;;;;;5128536;27;42377;-71
2023/09/25 13:19:25;;;;;;;2.50;1.40;;;;;;;;;;5109613;27;40784;-71
2023/09/25 13:21:54;;;;;;;2.83;1.38;;;;;;;;;;5127895;27;42644;-71
2023/09/25 13:24:22;;;;;;;2.85;1.23;;;;;;;;;;5126715;27;42058;-71
2023/09/25 13:26:50;;;;;;;5.93;1.17;;;;;;;;;;5127461;27;42107;-71
2023/09/25 13:29:19;;;;;;;2.28;1.05;;;;;;;;;;5127708;27;41289;-71
2023/09/25 13:31:47;;;;;;;2.28;1.30;;;;;;;;;;5127996;27;42049;-71
2023/09/25 13:34:15;;;;;;;2.33;1.48;;;;;;;;;;5127498;27;41778;-71
2023/09/25 13:36:43;;;;;;;4.00;1.42;;;;;;;;;;5127714;27;41693;-71
2023/09/25 13:39:13;;;;;;;4.07;1.50;;;;;;;;;;5129845;27;42591;-71
2023/09/25 13:41:41;;;;;;;4.03;1.73;;;;;;;;;;5130787;27;42074;-71
2023/09/25 13:44:10;;;;;;;2.95;2.13;;;;;;;;;;5131571;27;42619;-72
2023/09/25 13:46:38;;;;;;;7.45;3.50;;;;;;;;;;5131216;27;42899;-72
2023/09/25 13:49:07;;;;;;;4.45;3.38;;;;;;;;;;5131129;27;42173;-71
2023/09/25 13:51:35;;;;;;;6.05;2.60;;;;;;;;;;5130360;27;43084;-71
2023/09/25 13:54:03;;;;;;;7.88;3.00;;;;;;;;;;5127512;27;42347;-70
2023/09/25 13:56:37;;;;;;;4.97;2.30;;;;;;;;;;5130319;27;42267;-71
2023/09/25 13:59:05;;;;;;;6.22;2.42;;;;;;;;;;5123996;27;41499;-71
2023/09/25 14:01:33;;;;;;;2.75;2.00;;;;;;;;;;5131212;27;40810;-70
2023/09/25 14:04:01;;;;;;;10.18;1.67;;;;;;;;;;5130527;27;42355;-71
2023/09/25 14:06:30;;;;;;;5.68;1.70;;;;;;;;;;5131216;27;42556;-72
2023/09/25 14:08:58;;;;;;;7.57;1.98;;;;;;;;;;5130672;27;41641;-71
2023/09/25 14:11:26;;;;;;;5.28;1.85;;;;;;;;;;5130877;27;41823;-71
2023/09/25 14:13:55;;;;;;;7.60;1.80;;;;;;;;;;5131562;27;41511;-71
2023/09/25 14:16:23;;;;;;;14.02;2.45;;;;;;;;;;5130420;27;43054;-72
2023/09/25 14:18:51;;;;;;;16.40;2.10;;;;;;;;;;5129528;27;42183;-72
2023/09/25 14:21:20;;;;;;;9.25;2.10;;;;;;;;;;5130599;27;42875;-72
2023/09/25 14:23:48;;;;;;;10.98;2.20;;;;;;;;;;5108125;27;41198;-72
2023/09/25 14:26:17;;;;;;;16.05;1.67;;;;;;;;;;5112062;28;43148;-72
2023/09/25 14:28:45;;;;;;;8.07;1.80;;;;;;;;;;5109377;28;41768;-71
2023/09/25 14:31:14;;;;;;;6.63;1.58;;;;;;;;;;5108443;28;41597;-72
2023/09/25 14:33:44;;;;;;;10.13;1.42;;;;;;;;;;5110374;28;42151;-72
2023/09/25 14:36:12;;;;;;;14.95;2.45;;;;;;;;;;5110329;28;43236;-71
2023/09/25 14:38:40;;;;;;;8.73;1.95;;;;;;;;;;5108911;28;43387;-72
2023/09/25 14:41:07;;;;;;;36.95;2.70;;;;;;;;;;5109336;27;43149;-72
2023/09/25 14:43:35;;;;;;;13.68;2.15;;;;;;;;;;5108939;27;41995;-72
2023/09/25 14:46:03;;;;;;;18.73;2.53;;;;;;;;;;5108607;28;42676;-71
2023/09/25 14:48:33;;;;;;;11.52;2.40;;;;;;;;;;5109729;27;40666;-72
2023/09/25 14:51:02;;;;;;;9.02;1.48;;;;;;;;;;5107382;28;42102;-71